Time;durP1;ratioP1;P1;durP2;ratioP2;P2;SDS_P1;SDS_P2;PMS_P1;PMS_P2;Temp;Humidity;BMP_temperature;BMP_pressure;BME280_temperature;BME280_humidity;BME280_pressure;Samples;Min_cycle;Max_cycle;Signal;HPM_P1;HPM_P2
2022/11/27 00:00:06;;;;;;;9.37;9.07;;;22.70;62.70;;;;;;5031476;28;20560;-52
2022/11/27 00:02:32;;;;;;;9.70;9.40;;;22.70;62.90;;;;;;5031364;28;20477;-52
2022/11/27 00:05:00;;;;;;;9.70;9.40;;;22.60;62.90;;;;;;5031489;28;20524;-55
2022/11/27 00:07:27;;;;;;;10.10;9.80;;;22.60;63.10;;;;;;5031002;28;20480;-53
2022/11/27 00:09:54;;;;;;;10.00;9.60;;;22.50;63.10;;;;;;5031306;28;20483;-50
2022/11/27 00:12:21;;;;;;;9.80;9.50;;;22.50;63.30;;;;;;5031157;28;21024;-52
2022/11/27 00:14:48;;;;;;;11.80;11.10;;;22.50;63.40;;;;;;5031380;28;20443;-51
2022/11/27 00:17:15;;;;;;;9.50;9.20;;;22.50;63.50;;;;;;5031314;28;20448;-54
2022/11/27 00:19:42;;;;;;;10.70;10.30;;;22.40;63.70;;;;;;5030923;28;20488;-50
2022/11/27 00:22:10;;;;;;;10.13;9.83;;;22.40;63.80;;;;;;5031106;28;20445;-52
2022/11/27 00:24:37;;;;;;;10.50;10.10;;;22.30;63.70;;;;;;5031290;28;20745;-52
2022/11/27 00:27:04;;;;;;;11.47;11.07;;;22.30;63.90;;;;;;5031330;28;20477;-52
2022/11/27 00:29:31;;;;;;;9.60;9.30;;;22.30;63.90;;;;;;5030935;28;20469;-51
2022/11/27 00:31:58;;;;;;;10.30;9.90;;;22.30;64.00;;;;;;5030908;28;20445;-53
2022/11/27 00:34:25;;;;;;;10.90;10.60;;;22.20;64.00;;;;;;5031216;28;20900;-53
2022/11/27 00:36:52;;;;;;;9.97;9.57;;;22.20;64.00;;;;;;5031121;28;20445;-53
2022/11/27 00:39:20;;;;;;;10.27;9.87;;;22.20;64.90;;;;;;5030685;28;20470;-50
2022/11/27 00:41:47;;;;;;;10.10;9.80;;;22.20;64.20;;;;;;5030901;28;20441;-50
2022/11/27 00:44:14;;;;;;;9.87;9.57;;;22.20;64.20;;;;;;5031027;28;20816;-52
2022/11/27 00:46:41;;;;;;;10.63;10.17;;;22.20;64.20;;;;;;5030837;28;20487;-56
2022/11/27 00:49:09;;;;;;;9.47;9.20;;;22.20;64.30;;;;;;5030921;28;21239;-51
2022/11/27 00:51:36;;;;;;;9.63;9.33;;;22.10;64.20;;;;;;5030804;28;20944;-50
2022/11/27 00:54:03;;;;;;;10.60;10.27;;;22.10;64.20;;;;;;5031261;28;20488;-60
2022/11/27 00:56:33;;;;;;;10.80;10.47;;;22.10;64.30;;;;;;5033369;28;20483;-61
2022/11/27 00:59:00;;;;;;;10.10;9.70;;;22.00;64.30;;;;;;5034202;28;21049;-61
2022/11/27 01:01:29;;;;;;;10.37;9.93;;;22.00;64.40;;;;;;5034443;28;20889;-60
2022/11/27 01:03:56;;;;;;;9.43;9.07;;;21.90;64.40;;;;;;5034566;28;20960;-60
2022/11/27 01:06:24;;;;;;;10.07;9.77;;;21.90;64.50;;;;;;5034737;28;20579;-60
2022/11/27 01:08:51;;;;;;;10.20;9.80;;;21.90;64.70;;;;;;5034181;28;20558;-59
2022/11/27 01:11:21;;;;;;;9.70;9.33;;;21.90;64.90;;;;;;5035007;28;20491;-62
2022/11/27 01:13:49;;;;;;;9.90;9.60;;;21.90;64.90;;;;;;5034661;28;20449;-63
2022/11/27 01:16:18;;;;;;;9.70;9.40;;;21.90;65.10;;;;;;5034687;28;20452;-62
2022/11/27 01:18:46;;;;;;;9.83;9.53;;;21.80;65.00;;;;;;5034262;28;20488;-62
2022/11/27 01:21:14;;;;;;;9.67;9.37;;;21.80;65.20;;;;;;5034704;28;20520;-61
2022/11/27 01:23:41;;;;;;;10.30;9.93;;;21.80;65.20;;;;;;5034658;28;20445;-62
2022/11/27 01:26:10;;;;;;;9.57;9.27;;;21.80;65.30;;;;;;5034203;28;20448;-62
2022/11/27 01:28:39;;;;;;;10.30;9.60;;;21.80;65.30;;;;;;5034450;28;21001;-63
2022/11/27 01:31:11;;;;;;;10.90;10.50;;;21.70;65.30;;;;;;5034032;28;20441;-62
2022/11/27 01:33:37;;;;;;;10.07;9.77;;;21.70;65.30;;;;;;5034504;28;20452;-62
2022/11/27 01:36:07;;;;;;;9.40;9.20;;;21.70;65.30;;;;;;5035267;28;20532;-61
2022/11/27 01:38:34;;;;;;;10.10;9.80;;;21.70;65.30;;;;;;5043532;28;20444;-59
2022/11/27 01:41:03;;;;;;;10.47;10.03;;;21.70;65.30;;;;;;5054341;28;20843;-62
2022/11/27 01:43:38;;;;;;;10.30;10.00;;;21.70;65.40;;;;;;5054374;28;20475;-59
2022/11/27 01:46:11;;;;;;;9.17;8.87;;;21.70;65.50;;;;;;5054663;28;20470;-61
2022/11/27 01:48:38;;;;;;;10.03;9.73;;;21.70;65.40;;;;;;5046024;28;20532;-63
2022/11/27 01:51:05;;;;;;;10.37;9.97;;;21.60;65.30;;;;;;5034935;28;21047;-62
2022/11/27 01:53:33;;;;;;;9.80;9.40;;;21.60;65.30;;;;;;5034602;28;20464;-60
2022/11/27 01:56:01;;;;;;;10.03;9.63;;;21.60;65.40;;;;;;5034226;28;20445;-61
2022/11/27 01:58:30;;;;;;;9.83;9.53;;;21.60;66.10;;;;;;5033920;28;20531;-57
2022/11/27 02:00:57;;;;;;;9.40;9.20;;;21.60;65.20;;;;;;5047475;28;20558;-61
2022/11/27 02:03:26;;;;;;;8.93;8.73;;;21.60;65.30;;;;;;5053535;28;20450;-62
2022/11/27 02:05:53;;;;;;;9.23;8.90;;;21.60;65.30;;;;;;5053625;28;20480;-60
2022/11/27 02:08:19;;;;;;;9.50;9.20;;;21.60;65.30;;;;;;5053494;28;20502;-62
2022/11/27 02:10:50;;;;;;;10.30;9.90;;;21.50;65.10;;;;;;5053822;28;20472;-60
2022/11/27 02:13:26;;;;;;;10.10;9.70;;;21.50;65.10;;;;;;5035550;28;20499;-57
2022/11/27 02:16:00;;;;;;;9.57;9.27;;;21.50;65.10;;;;;;5034347;28;20487;-62
2022/11/27 02:18:35;;;;;;;9.60;9.20;;;21.50;65.10;;;;;;5033778;28;20433;-61
2022/11/27 02:21:08;;;;;;;10.33;9.93;;;21.50;65.90;;;;;;5034065;28;20471;-62
2022/11/27 02:23:49;;;;;;;10.50;10.20;;;21.50;65.10;;;;;;5037371;28;20535;-62
2022/11/27 02:26:33;;;;;;;10.37;9.97;;;21.50;65.20;;;;;;5035037;28;21009;-62
2022/11/27 02:29:06;;;;;;;10.37;10.03;;;21.50;65.10;;;;;;5034918;28;20539;-62
2022/11/27 02:31:39;;;;;;;9.70;9.40;;;21.50;65.10;;;;;;5033929;28;20484;-58
2022/11/27 02:34:22;;;;;;;10.30;10.00;;;21.50;65.10;;;;;;5033515;28;20865;-58
2022/11/27 02:36:54;;;;;;;9.70;9.40;;;21.40;65.10;;;;;;5038275;28;20480;-62
2022/11/27 02:39:25;;;;;;;9.57;9.27;;;21.40;65.20;;;;;;5034420;28;20468;-62
2022/11/27 02:42:00;;;;;;;10.10;9.80;;;21.40;65.20;;;;;;5034606;28;20539;-62
2022/11/27 02:44:33;;;;;;;11.07;10.57;;;21.40;65.20;;;;;;5033739;28;20966;-61
2022/11/27 02:47:01;;;;;;;10.10;9.80;;;21.40;65.20;;;;;;5034141;28;20847;-61
2022/11/27 02:49:29;;;;;;;10.13;9.73;;;21.40;65.20;;;;;;5053613;28;20567;-62
2022/11/27 02:51:59;;;;;;;9.90;9.60;;;21.40;66.00;;;;;;5053857;28;20535;-62
2022/11/27 02:54:28;;;;;;;9.70;9.40;;;21.30;65.20;;;;;;5054468;28;20536;-59
2022/11/27 02:56:58;;;;;;;10.43;9.97;;;21.30;65.40;;;;;;5054408;28;20531;-62
2022/11/27 02:59:30;;;;;;;9.90;9.60;;;21.30;65.40;;;;;;5047887;28;20829;-61
2022/11/27 03:02:02;;;;;;;9.40;9.10;;;21.30;65.40;;;;;;5033417;28;20445;-59
2022/11/27 03:04:33;;;;;;;9.97;9.67;;;21.30;65.40;;;;;;5032988;28;21035;-61
2022/11/27 03:07:12;;;;;;;9.57;9.27;;;21.30;65.40;;;;;;5032835;28;20575;-59
2022/11/27 03:09:42;;;;;;;9.70;9.40;;;21.30;65.50;;;;;;5032798;28;20476;-61
2022/11/27 03:12:11;;;;;;;9.60;9.40;;;21.30;65.50;;;;;;5045359;28;20444;-61
2022/11/27 03:14:41;;;;;;;9.80;9.53;;;21.30;65.50;;;;;;5054000;28;20543;-61
2022/11/27 03:17:19;;;;;;;10.37;10.07;;;21.20;65.40;;;;;;5054053;28;20490;-62
2022/11/27 03:19:53;;;;;;;9.87;9.60;;;21.20;65.40;;;;;;5053208;28;20547;-61
2022/11/27 03:22:20;;;;;;;10.20;9.80;;;21.20;65.40;;;;;;5053619;28;20484;-61
2022/11/27 03:24:48;;;;;;;9.70;9.40;;;21.20;65.40;;;;;;5034532;28;20540;-58
2022/11/27 03:27:21;;;;;;;10.00;9.70;;;21.20;65.40;;;;;;5034218;28;20513;-61
2022/11/27 03:29:53;;;;;;;10.27;9.97;;;21.20;65.40;;;;;;5034186;28;20504;-62
2022/11/27 03:32:20;;;;;;;10.13;9.70;;;21.20;65.40;;;;;;5033606;28;20847;-61
2022/11/27 03:34:48;;;;;;;9.77;9.47;;;21.20;65.40;;;;;;5037987;28;20964;-61
2022/11/27 03:37:15;;;;;;;9.93;9.63;;;21.20;65.40;;;;;;5054768;28;20479;-61
2022/11/27 03:39:43;;;;;;;10.43;10.13;;;21.20;65.40;;;;;;5054600;28;20496;-62
2022/11/27 03:42:18;;;;;;;10.47;10.17;;;21.20;65.40;;;;;;5052840;28;20534;-61
2022/11/27 03:44:53;;;;;;;10.20;9.90;;;21.20;65.50;;;;;;5052722;28;20570;-60
2022/11/27 03:47:31;;;;;;;10.27;9.57;;;21.20;65.50;;;;;;5044909;28;20486;-61
2022/11/27 03:50:12;;;;;;;10.60;10.30;;;21.20;65.60;;;;;;5032594;28;20556;-62
2022/11/27 03:52:46;;;;;;;10.00;9.60;;;21.10;65.40;;;;;;5033232;28;20525;-62
2022/11/27 03:55:17;;;;;;;9.40;9.13;;;21.10;65.40;;;;;;5036824;28;20476;-62
2022/11/27 03:57:52;;;;;;;9.70;9.20;;;21.10;65.40;;;;;;5053061;28;20471;-61
2022/11/27 04:00:20;;;;;;;10.47;10.07;;;21.10;65.40;;;;;;5052432;28;20554;-62
2022/11/27 04:02:50;;;;;;;10.33;10.03;;;21.10;65.30;;;;;;5052438;28;20542;-62
2022/11/27 04:05:18;;;;;;;10.53;10.17;;;21.10;65.30;;;;;;5047531;28;20477;-61
2022/11/27 04:07:45;;;;;;;10.10;9.80;;;21.10;65.30;;;;;;5032101;28;20637;-61
2022/11/27 04:10:13;;;;;;;12.00;11.50;;;21.10;65.30;;;;;;5032341;28;20481;-59
2022/11/27 04:12:42;;;;;;;10.20;9.90;;;21.10;65.20;;;;;;5032976;28;20531;-55
2022/11/27 04:15:10;;;;;;;11.57;10.93;;;21.10;65.30;;;;;;5033760;28;20445;-61
2022/11/27 04:17:38;;;;;;;11.03;10.63;;;21.10;65.30;;;;;;5041077;28;20527;-61
2022/11/27 04:20:06;;;;;;;11.07;10.47;;;21.10;65.20;;;;;;5052728;28;20464;-61
2022/11/27 04:22:33;;;;;;;10.27;9.97;;;21.00;65.10;;;;;;5051805;28;20436;-60
2022/11/27 04:25:00;;;;;;;11.20;10.80;;;21.00;65.20;;;;;;5052106;28;20536;-62
2022/11/27 04:27:26;;;;;;;10.07;9.77;;;21.00;65.00;;;;;;5052064;28;20481;-59
2022/11/27 04:29:53;;;;;;;10.40;10.00;;;21.00;65.90;;;;;;5044027;28;20996;-60
2022/11/27 04:32:20;;;;;;;10.30;9.90;;;21.00;65.00;;;;;;5036023;28;20540;-61
2022/11/27 04:34:48;;;;;;;10.70;10.20;;;21.00;65.00;;;;;;5036196;28;20531;-61
2022/11/27 04:37:15;;;;;;;10.93;10.63;;;21.00;65.00;;;;;;5037068;28;20807;-60
2022/11/27 04:39:42;;;;;;;10.40;10.07;;;21.00;65.80;;;;;;5036574;28;20536;-62
2022/11/27 04:42:09;;;;;;;11.20;10.80;;;21.00;65.00;;;;;;5035812;28;20452;-58
2022/11/27 04:44:36;;;;;;;11.73;11.23;;;21.00;65.70;;;;;;5034843;28;20951;-53
2022/11/27 04:47:03;;;;;;;10.97;10.57;;;21.00;64.90;;;;;;5034849;28;20451;-53
2022/11/27 04:49:30;;;;;;;11.30;10.70;;;21.00;65.00;;;;;;5052820;28;20470;-53
2022/11/27 04:51:58;;;;;;;10.60;10.20;;;21.00;64.90;;;;;;5054795;28;20465;-53
2022/11/27 04:54:25;;;;;;;10.60;10.30;;;21.00;64.90;;;;;;5054926;28;20543;-57
2022/11/27 04:56:52;;;;;;;10.90;10.50;;;21.00;64.90;;;;;;5044688;28;20452;-52
2022/11/27 04:59:19;;;;;;;11.03;10.63;;;21.00;64.90;;;;;;5044081;28;20493;-55
2022/11/27 05:01:46;;;;;;;11.80;11.27;;;20.90;64.80;;;;;;5052600;28;20472;-58
2022/11/27 05:04:13;;;;;;;10.63;10.23;;;20.90;64.80;;;;;;5052850;28;20449;-54
2022/11/27 05:06:39;;;;;;;10.30;10.00;;;20.90;64.70;;;;;;5061215;28;20809;-57
2022/11/27 05:09:08;;;;;;;10.93;10.43;;;20.90;64.80;;;;;;5072576;28;20483;-56
2022/11/27 05:11:34;;;;;;;10.87;10.40;;;20.90;64.80;;;;;;5072927;28;20435;-58
2022/11/27 05:14:16;;;;;;;10.93;10.57;;;20.90;64.80;;;;;;5067499;28;20543;-51
2022/11/27 05:16:45;;;;;;;11.00;10.60;;;20.90;64.70;;;;;;5054513;28;20451;-55
2022/11/27 05:19:13;;;;;;;11.50;10.93;;;20.90;64.70;;;;;;5040979;28;20976;-50
2022/11/27 05:21:41;;;;;;;11.33;10.93;;;20.90;64.70;;;;;;5034359;28;20783;-53
2022/11/27 05:24:10;;;;;;;10.87;10.57;;;20.90;65.50;;;;;;5034230;28;20523;-53
2022/11/27 05:26:37;;;;;;;12.00;11.50;;;20.90;65.60;;;;;;5034192;28;20445;-55
2022/11/27 05:29:04;;;;;;;12.03;11.57;;;20.90;64.80;;;;;;5034014;28;20532;-53
2022/11/27 05:31:31;;;;;;;10.30;10.00;;;20.90;64.70;;;;;;5051020;28;20443;-53
2022/11/27 05:33:58;;;;;;;10.60;10.20;;;20.90;64.70;;;;;;5054062;28;20819;-55
2022/11/27 05:36:25;;;;;;;10.90;10.50;;;20.90;64.70;;;;;;5053952;28;20534;-53
2022/11/27 05:38:52;;;;;;;10.93;10.53;;;20.80;64.60;;;;;;5053707;28;20447;-50
2022/11/27 05:41:21;;;;;;;10.47;10.07;;;20.80;64.70;;;;;;5051550;28;20539;-57
2022/11/27 05:43:48;;;;;;;10.70;10.40;;;20.80;64.70;;;;;;5033712;28;20455;-51
2022/11/27 05:46:18;;;;;;;11.70;11.30;;;20.90;64.80;;;;;;5033760;28;20520;-52
2022/11/27 05:48:45;;;;;;;11.17;10.77;;;20.80;64.70;;;;;;5033579;28;21026;-56
2022/11/27 05:51:12;;;;;;;11.50;11.10;;;20.80;64.70;;;;;;5033516;28;20441;-52
2022/11/27 05:53:38;;;;;;;10.77;10.37;;;20.80;64.70;;;;;;5039042;28;20531;-53
2022/11/27 05:56:08;;;;;;;11.57;11.07;;;20.80;64.80;;;;;;5053447;28;20471;-50
2022/11/27 05:58:38;;;;;;;12.73;12.33;;;20.80;64.70;;;;;;5053460;28;20440;-52
2022/11/27 06:01:05;;;;;;;11.47;11.07;;;20.80;64.80;;;;;;5053116;28;20464;-50
2022/11/27 06:03:32;;;;;;;11.37;10.97;;;20.80;64.80;;;;;;5034554;28;20512;-50
2022/11/27 06:05:59;;;;;;;11.20;10.80;;;20.80;64.80;;;;;;5033372;28;20445;-52
2022/11/27 06:08:26;;;;;;;11.20;10.73;;;20.80;64.80;;;;;;5033250;28;20576;-52
2022/11/27 06:10:52;;;;;;;12.10;11.60;;;20.80;64.80;;;;;;5033083;28;20480;-54
2022/11/27 06:13:19;;;;;;;11.97;11.57;;;20.80;65.60;;;;;;5049374;28;21035;-50
2022/11/27 06:15:47;;;;;;;11.60;11.20;;;20.80;64.80;;;;;;5041518;28;20503;-57
2022/11/27 06:18:14;;;;;;;11.43;11.03;;;20.80;64.80;;;;;;5033244;28;20443;-52
2022/11/27 06:20:41;;;;;;;11.03;10.67;;;20.80;64.80;;;;;;5032966;28;20523;-54
2022/11/27 06:23:08;;;;;;;10.90;10.50;;;20.80;64.80;;;;;;5032781;28;20540;-53
2022/11/27 06:25:35;;;;;;;10.60;10.30;;;20.80;64.90;;;;;;5051430;28;21054;-53
2022/11/27 06:28:01;;;;;;;11.23;10.83;;;20.80;64.80;;;;;;5052748;28;20483;-53
2022/11/27 06:30:28;;;;;;;11.90;11.50;;;20.80;64.80;;;;;;5052738;28;20460;-52
2022/11/27 06:32:56;;;;;;;10.23;9.83;;;20.80;64.70;;;;;;5052468;28;20883;-53
2022/11/27 06:35:23;;;;;;;11.00;10.60;;;20.80;64.70;;;;;;5052625;28;20451;-55
2022/11/27 06:37:50;;;;;;;11.97;11.57;;;20.80;64.70;;;;;;5052382;28;20543;-58
2022/11/27 06:40:17;;;;;;;11.57;11.17;;;20.80;64.70;;;;;;5052695;28;20487;-50
2022/11/27 06:42:44;;;;;;;11.30;10.90;;;20.70;64.60;;;;;;5052383;28;20446;-55
2022/11/27 06:45:12;;;;;;;11.70;11.20;;;20.70;64.60;;;;;;5047815;28;20913;-54
2022/11/27 06:47:39;;;;;;;11.97;11.57;;;20.70;64.60;;;;;;5052469;28;20452;-52
2022/11/27 06:50:08;;;;;;;11.57;11.23;;;20.70;64.50;;;;;;5052393;28;20464;-50
2022/11/27 06:52:35;;;;;;;11.50;11.10;;;20.70;64.50;;;;;;5051865;28;20523;-49
2022/11/27 06:55:02;;;;;;;11.10;10.70;;;20.80;65.00;;;;;;5041883;28;20459;-52
2022/11/27 06:57:29;;;;;;;11.03;10.57;;;20.80;64.80;;;;;;5032435;28;20441;-56
2022/11/27 06:59:55;;;;;;;11.07;10.23;;;20.80;64.70;;;;;;5032211;28;21035;-50
2022/11/27 07:02:23;;;;;;;11.07;10.67;;;20.90;65.80;;;;;;5033561;28;20531;-53
2022/11/27 07:04:50;;;;;;;10.50;10.10;;;21.00;65.60;;;;;;5052100;28;20523;-50
2022/11/27 07:20:13;;;;;;;11.07;10.70;;;21.20;65.60;;;;;;5129245;27;20643;-52
2022/11/27 07:22:40;;;;;;;10.93;10.60;;;21.90;62.50;;;;;;5128595;27;20527;-55
2022/11/27 07:25:08;;;;;;;10.70;10.40;;;21.90;61.80;;;;;;5107675;28;20476;-53
2022/11/27 07:27:34;;;;;;;10.97;10.67;;;21.90;61.50;;;;;;5109122;28;20888;-56
2022/11/27 07:30:01;;;;;;;10.60;10.30;;;22.00;61.50;;;;;;5108842;28;20968;-54
2022/11/27 07:34:56;;;;;;;10.93;10.63;;;22.00;61.10;;;;;;5073837;28;20477;-50
2022/11/27 07:37:24;;;;;;;11.20;10.70;;;22.00;61.10;;;;;;5072180;28;20444;-48
2022/11/27 07:39:51;;;;;;;10.60;10.23;;;22.00;60.90;;;;;;5068081;28;20448;-50
2022/11/27 07:42:18;;;;;;;11.53;11.00;;;22.00;60.70;;;;;;5068352;28;20453;-48
2022/11/27 07:44:45;;;;;;;11.53;11.13;;;22.00;60.50;;;;;;5068006;28;20467;-47
2022/11/27 07:47:12;;;;;;;10.70;10.37;;;22.00;60.50;;;;;;5068226;28;20542;-48
2022/11/27 07:49:38;;;;;;;10.60;10.20;;;22.00;60.50;;;;;;5068034;28;20479;-52
2022/11/27 07:52:06;;;;;;;11.37;10.97;;;22.00;60.60;;;;;;5068170;28;20447;-51
2022/11/27 07:54:35;;;;;;;11.33;10.57;;;21.90;60.70;;;;;;5067759;28;20907;-50
2022/11/27 07:57:02;;;;;;;10.90;10.60;;;21.90;60.80;;;;;;5067991;28;20538;-49
2022/11/27 07:59:28;;;;;;;11.27;10.97;;;21.80;60.90;;;;;;5067607;28;20885;-53
2022/11/27 08:01:55;;;;;;;10.60;10.30;;;21.80;61.00;;;;;;5067695;28;20451;-50
2022/11/27 08:04:23;;;;;;;11.67;10.90;;;21.80;61.10;;;;;;5068112;28;20459;-49
2022/11/27 08:06:49;;;;;;;11.67;11.17;;;21.80;61.30;;;;;;5067839;28;20458;-48
2022/11/27 08:09:16;;;;;;;10.90;10.60;;;21.70;61.30;;;;;;5067930;28;20566;-48
2022/11/27 08:11:44;;;;;;;11.40;11.00;;;21.60;61.30;;;;;;5067396;28;20506;-54
2022/11/27 08:14:13;;;;;;;10.50;10.20;;;21.60;61.50;;;;;;5067261;28;20479;-53
2022/11/27 08:16:40;;;;;;;11.20;10.70;;;21.60;61.80;;;;;;5067594;28;20447;-53
2022/11/27 08:19:07;;;;;;;11.20;10.73;;;21.60;62.60;;;;;;5065992;28;20578;-54
2022/11/27 08:21:34;;;;;;;11.20;10.90;;;21.60;61.90;;;;;;5053923;28;20439;-48
2022/11/27 08:24:01;;;;;;;11.17;10.83;;;21.60;61.50;;;;;;5054348;28;20543;-54
2022/11/27 08:26:27;;;;;;;11.57;11.17;;;21.70;61.50;;;;;;5054305;28;21035;-49
2022/11/27 08:28:57;;;;;;;11.33;11.03;;;21.80;61.20;;;;;;5053943;28;20503;-51
2022/11/27 08:31:24;;;;;;;11.43;10.97;;;21.80;61.60;;;;;;5054201;28;20532;-56
2022/11/27 08:33:51;;;;;;;11.47;10.97;;;21.80;60.60;;;;;;5053724;28;20562;-57
2022/11/27 08:36:18;;;;;;;11.10;10.70;;;21.80;60.30;;;;;;5054082;28;20448;-54
2022/11/27 08:38:45;;;;;;;10.67;10.37;;;21.90;60.20;;;;;;5054049;28;20440;-53
2022/11/27 08:41:12;;;;;;;11.27;10.90;;;22.00;60.30;;;;;;5054089;28;20455;-58
2022/11/27 08:43:39;;;;;;;10.70;10.23;;;22.00;60.50;;;;;;5054011;28;20475;-55
2022/11/27 08:46:08;;;;;;;11.00;10.70;;;22.10;60.50;;;;;;5055044;28;20720;-53
2022/11/27 08:48:35;;;;;;;12.00;11.60;;;22.10;60.10;;;;;;5054131;28;20854;-52
2022/11/27 08:51:06;;;;;;;12.50;12.00;;;22.10;59.80;;;;;;5053702;28;20811;-55
2022/11/27 08:53:33;;;;;;;12.33;11.93;;;22.10;59.80;;;;;;5053742;28;20511;-50
2022/11/27 08:56:08;;;;;;;12.00;11.50;;;22.20;60.10;;;;;;5053837;28;20879;-51
2022/11/27 08:58:35;;;;;;;12.87;12.20;;;22.20;59.70;;;;;;5053870;28;20490;-49
2022/11/27 09:01:09;;;;;;;11.87;11.47;;;22.30;59.70;;;;;;5053534;28;20873;-49
2022/11/27 09:03:37;;;;;;;12.23;11.83;;;22.30;59.70;;;;;;5053514;28;20476;-53
2022/11/27 09:06:07;;;;;;;12.40;11.90;;;22.30;59.50;;;;;;5053514;28;20444;-53
2022/11/27 09:08:33;;;;;;;17.10;15.90;;;22.20;59.30;;;;;;5053155;28;20523;-51
2022/11/27 09:11:00;;;;;;;12.20;11.80;;;22.20;59.40;;;;;;5053158;28;20447;-55
2022/11/27 09:13:27;;;;;;;13.20;12.60;;;22.20;59.30;;;;;;5053336;28;20459;-50
2022/11/27 09:15:56;;;;;;;21.10;19.43;;;22.20;59.30;;;;;;5053616;28;20934;-51
2022/11/27 09:18:24;;;;;;;22.90;21.00;;;22.20;59.30;;;;;;5053042;28;20464;-57
2022/11/27 09:20:56;;;;;;;18.17;16.87;;;22.30;59.40;;;;;;5049061;28;20452;-52
2022/11/27 09:23:24;;;;;;;23.70;21.13;;;22.30;59.30;;;;;;5053323;28;20654;-53
2022/11/27 09:25:50;;;;;;;21.00;18.83;;;22.40;59.20;;;;;;5053290;28;20522;-50
2022/11/27 09:28:17;;;;;;;22.17;19.90;;;22.30;59.10;;;;;;5052740;28;20452;-57
2022/11/27 09:30:44;;;;;;;20.30;18.27;;;22.30;59.40;;;;;;5052296;28;20458;-48
2022/11/27 09:33:11;;;;;;;21.73;19.90;;;22.30;59.80;;;;;;5051895;28;20599;-55
2022/11/27 09:35:39;;;;;;;20.33;18.30;;;22.30;59.50;;;;;;5052929;28;20527;-48
2022/11/27 09:38:06;;;;;;;19.47;17.40;;;22.20;59.30;;;;;;5053051;28;20456;-51
2022/11/27 09:40:34;;;;;;;18.03;16.50;;;22.30;59.80;;;;;;5052473;28;20911;-53
2022/11/27 09:43:08;;;;;;;17.90;16.17;;;22.20;59.20;;;;;;5052723;28;20747;-51
2022/11/27 09:45:41;;;;;;;18.17;16.67;;;22.30;59.30;;;;;;5052797;28;20458;-51
2022/11/27 09:48:13;;;;;;;18.90;16.90;;;22.20;59.10;;;;;;5052305;28;20448;-51
2022/11/27 09:50:49;;;;;;;18.80;16.57;;;22.20;59.10;;;;;;5052318;28;20476;-51
2022/11/27 09:53:27;;;;;;;17.10;15.40;;;22.20;59.00;;;;;;5052125;28;20468;-52
2022/11/27 09:55:56;;;;;;;17.27;15.70;;;22.30;59.30;;;;;;5052582;28;20527;-50
2022/11/27 09:58:38;;;;;;;17.40;15.80;;;22.30;58.90;;;;;;5052570;28;20530;-50
2022/11/27 10:01:11;;;;;;;16.87;15.50;;;22.40;58.70;;;;;;5051857;28;20531;-53
2022/11/27 10:03:41;;;;;;;17.10;15.70;;;22.40;58.60;;;;;;5052230;28;20476;-52
2022/11/27 10:06:20;;;;;;;16.17;15.07;;;22.40;58.40;;;;;;5052391;28;20447;-50
2022/11/27 10:08:57;;;;;;;17.17;15.77;;;22.50;59.00;;;;;;5052227;28;20537;-52
2022/11/27 10:11:30;;;;;;;16.40;15.00;;;22.50;58.40;;;;;;5051955;28;20467;-56
2022/11/27 10:14:09;;;;;;;16.67;14.97;;;22.50;58.20;;;;;;5052259;28;20499;-55
2022/11/27 10:16:40;;;;;;;17.20;15.47;;;22.50;58.20;;;;;;5052249;28;21004;-53
2022/11/27 10:19:21;;;;;;;15.93;15.00;;;22.60;58.60;;;;;;5052025;28;20439;-49
2022/11/27 10:21:56;;;;;;;16.27;15.17;;;22.80;58.60;;;;;;5051563;28;20491;-53
2022/11/27 10:24:35;;;;;;;17.80;16.17;;;22.90;58.60;;;;;;5051834;28;20474;-51
2022/11/27 10:27:05;;;;;;;15.90;14.90;;;22.80;58.00;;;;;;5052195;28;20452;-50
2022/11/27 10:29:38;;;;;;;16.83;15.63;;;22.80;58.10;;;;;;5051849;28;20998;-52
2022/11/27 10:32:11;;;;;;;16.87;15.77;;;22.70;58.00;;;;;;5051774;28;20531;-51
2022/11/27 10:34:41;;;;;;;17.07;15.57;;;22.70;58.30;;;;;;5052001;28;20508;-50
2022/11/27 10:37:16;;;;;;;16.10;15.00;;;22.70;58.20;;;;;;5051942;28;20528;-49
2022/11/27 10:39:46;;;;;;;15.70;14.80;;;22.70;58.20;;;;;;5051570;28;20522;-52
2022/11/27 10:42:19;;;;;;;15.63;14.63;;;22.70;58.10;;;;;;5051206;28;20502;-50
2022/11/27 10:44:51;;;;;;;14.97;14.07;;;22.70;58.10;;;;;;5051830;28;20559;-46
2022/11/27 10:47:20;;;;;;;15.10;14.30;;;22.70;58.10;;;;;;5051711;28;20444;-47
2022/11/27 10:49:47;;;;;;;14.33;13.43;;;22.80;58.00;;;;;;5051586;28;20522;-52
2022/11/27 10:52:18;;;;;;;15.33;14.20;;;22.80;57.80;;;;;;5051248;28;20441;-50
2022/11/27 10:54:50;;;;;;;14.67;13.77;;;22.80;57.90;;;;;;5051580;28;20975;-57
2022/11/27 10:57:43;;;;;;;14.70;13.80;;;22.90;57.90;;;;;;5051871;28;20476;-56
2022/11/27 11:00:13;;;;;;;17.37;15.87;;;22.90;57.70;;;;;;5051747;28;20448;-52
2022/11/27 11:02:41;;;;;;;21.20;19.40;;;22.80;57.40;;;;;;5051601;28;20452;-55
2022/11/27 11:05:21;;;;;;;22.40;20.57;;;22.80;57.90;;;;;;5051626;28;20555;-56
2022/11/27 11:08:15;;;;;;;22.60;20.30;;;22.70;59.70;;;;;;5051707;28;20444;-49
2022/11/27 11:10:49;;;;;;;23.20;21.20;;;22.70;59.20;;;;;;5050901;28;20482;-61
2022/11/27 11:13:19;;;;;;;21.00;19.00;;;22.70;59.70;;;;;;5051051;28;20464;-50
2022/11/27 11:16:01;;;;;;;19.83;18.20;;;22.70;60.00;;;;;;5051404;28;20535;-57
2022/11/27 11:18:29;;;;;;;20.40;18.80;;;22.80;59.90;;;;;;5051538;28;20740;-49
2022/11/27 11:20:59;;;;;;;18.80;17.13;;;22.80;59.70;;;;;;5050803;28;20475;-51
2022/11/27 11:23:34;;;;;;;20.10;18.60;;;22.80;59.70;;;;;;5051395;28;20464;-53
2022/11/27 11:26:04;;;;;;;18.83;17.43;;;22.80;59.50;;;;;;5051428;28;20443;-52
2022/11/27 11:28:33;;;;;;;19.10;17.47;;;22.90;59.40;;;;;;5051283;28;20992;-51
2022/11/27 11:31:05;;;;;;;17.80;16.50;;;22.90;59.20;;;;;;5051197;28;20444;-50
2022/11/27 11:33:39;;;;;;;17.90;16.47;;;22.90;59.40;;;;;;5050765;28;20562;-49
2022/11/27 11:36:10;;;;;;;17.23;15.83;;;22.90;59.20;;;;;;5051284;28;20539;-48
2022/11/27 11:38:44;;;;;;;17.23;15.93;;;22.90;59.00;;;;;;5051254;28;20447;-50
2022/11/27 11:41:11;;;;;;;17.00;16.00;;;22.80;58.90;;;;;;5051231;28;20456;-55
2022/11/27 11:43:40;;;;;;;16.40;15.00;;;22.80;58.60;;;;;;5051183;28;20468;-53
2022/11/27 11:46:16;;;;;;;19.30;17.30;;;22.80;58.50;;;;;;5050934;28;20820;-58
2022/11/27 11:48:54;;;;;;;15.63;14.70;;;22.80;58.40;;;;;;5050999;28;20531;-57
2022/11/27 11:51:45;;;;;;;17.00;15.90;;;22.90;58.40;;;;;;5051143;28;20475;-55
2022/11/27 11:54:25;;;;;;;16.30;15.20;;;22.80;58.40;;;;;;5050764;28;20500;-49
2022/11/27 11:56:52;;;;;;;16.43;15.37;;;22.90;58.30;;;;;;5050557;28;20883;-50
2022/11/27 11:59:31;;;;;;;16.90;15.50;;;22.90;58.90;;;;;;5054771;28;20436;-55
2022/11/27 12:02:20;;;;;;;15.07;14.17;;;22.80;59.40;;;;;;5054759;28;20543;-56
2022/11/27 12:05:11;;;;;;;15.63;14.53;;;22.80;58.70;;;;;;5054745;28;20551;-57
2022/11/27 12:07:53;;;;;;;14.77;13.70;;;22.80;58.50;;;;;;5054439;28;20484;-51
2022/11/27 12:10:27;;;;;;;15.83;14.80;;;22.80;58.40;;;;;;5054408;28;20533;-51
2022/11/27 12:13:04;;;;;;;15.37;14.57;;;22.80;58.40;;;;;;5054582;28;20506;-52
2022/11/27 12:15:36;;;;;;;13.10;12.40;;;22.80;58.40;;;;;;5054283;28;20467;-53
2022/11/27 12:18:13;;;;;;;16.03;14.77;;;22.80;58.40;;;;;;5054429;28;20539;-54
2022/11/27 12:20:52;;;;;;;14.80;13.40;;;22.80;58.30;;;;;;5054251;28;21002;-55
2022/11/27 12:23:51;;;;;;;13.40;12.70;;;22.80;58.20;;;;;;5054426;28;20471;-52
2022/11/27 12:26:27;;;;;;;14.23;13.23;;;22.80;58.10;;;;;;5053936;28;20491;-57
2022/11/27 12:29:09;;;;;;;14.20;13.20;;;22.90;58.10;;;;;;5053998;28;20818;-54
2022/11/27 12:31:55;;;;;;;13.60;12.80;;;22.80;57.90;;;;;;5054402;28;20970;-56
2022/11/27 12:34:35;;;;;;;16.77;15.60;;;22.80;58.00;;;;;;5054084;28;20483;-50
2022/11/27 12:37:21;;;;;;;13.30;12.60;;;22.90;57.90;;;;;;5053821;28;20458;-50
2022/11/27 12:40:03;;;;;;;14.13;13.23;;;22.90;57.90;;;;;;5033990;28;20441;-51
2022/11/27 12:42:36;;;;;;;13.57;12.87;;;22.80;57.90;;;;;;5034225;28;20491;-50
2022/11/27 12:45:13;;;;;;;14.73;13.83;;;22.90;58.00;;;;;;5046858;28;20543;-56
2022/11/27 12:47:43;;;;;;;13.10;12.33;;;22.90;57.80;;;;;;5053919;28;20444;-52
2022/11/27 12:50:17;;;;;;;13.57;12.87;;;22.90;57.70;;;;;;5053226;28;20871;-50
2022/11/27 12:52:49;;;;;;;13.80;13.20;;;22.90;57.70;;;;;;5053708;28;20463;-51
2022/11/27 12:55:20;;;;;;;14.30;13.50;;;22.90;57.80;;;;;;5053639;28;20543;-48
2022/11/27 12:57:52;;;;;;;13.00;12.30;;;22.90;57.70;;;;;;5053921;28;20444;-52
2022/11/27 13:00:21;;;;;;;14.33;13.60;;;22.90;57.40;;;;;;5053650;28;20440;-56